createdAt,value
2023-05-10T00:02:00.306Z,8.55
2023-05-10T00:04:28.675Z,8.50
2023-05-10T00:06:56.477Z,7.88
2023-05-10T00:09:23.524Z,7.68
2023-05-10T00:11:50.698Z,8.48
2023-05-10T00:14:18.195Z,8.23
2023-05-10T00:16:45.355Z,7.90
2023-05-10T00:19:12.557Z,8.25
2023-05-10T00:21:39.693Z,8.07
2023-05-10T00:24:06.987Z,8.50
2023-05-10T00:26:34.049Z,7.70
2023-05-10T00:29:01.215Z,8.38
2023-05-10T00:31:28.246Z,7.40
2023-05-10T00:33:55.783Z,7.88
2023-05-10T00:36:22.945Z,7.63
2023-05-10T00:38:50.252Z,8.23
2023-05-10T00:41:17.290Z,8.65
2023-05-10T00:43:44.496Z,7.93
2023-05-10T00:46:12.237Z,7.47
2023-05-10T00:48:39.706Z,8.70
2023-05-10T00:51:07.624Z,8.45
2023-05-10T00:53:36.051Z,8.07
2023-05-10T00:56:04.503Z,7.38
2023-05-10T00:58:32.313Z,8.30
2023-05-10T01:01:00.755Z,9.82
2023-05-10T01:03:27.950Z,7.85
2023-05-10T01:05:55.336Z,7.10
2023-05-10T01:08:23.042Z,8.32
2023-05-10T01:10:53.837Z,8.32
2023-05-10T01:13:40.751Z,8.82
2023-05-10T01:16:08.547Z,9.18
2023-05-10T01:18:39.939Z,7.65
2023-05-10T01:21:18.928Z,8.00
2023-05-10T01:23:48.762Z,8.88
2023-05-10T01:26:36.641Z,8.52
2023-05-10T01:30:13.605Z,8.48
2023-05-10T01:32:42.378Z,8.70
2023-05-10T01:35:20.272Z,9.00
2023-05-10T01:37:58.502Z,8.88
2023-05-10T01:40:37.846Z,8.13
2023-05-10T01:43:12.330Z,8.13
2023-05-10T01:45:49.031Z,8.13
2023-05-10T01:48:17.538Z,8.02
2023-05-10T01:50:46.837Z,8.88
2023-05-10T01:53:19.259Z,8.18
2023-05-10T01:55:49.088Z,8.05
2023-05-10T01:58:21.562Z,8.48
2023-05-10T02:00:50.989Z,7.95
2023-05-10T02:03:21.887Z,7.63
2023-05-10T02:05:50.984Z,8.68
2023-05-10T02:08:19.435Z,8.32
2023-05-10T02:10:47.070Z,7.80
2023-05-10T02:13:15.360Z,6.90
2023-05-10T02:15:44.256Z,8.00
2023-05-10T02:18:13.090Z,7.60
2023-05-10T02:20:40.911Z,7.93
2023-05-10T02:23:10.132Z,7.28
2023-05-10T02:25:40.019Z,7.93
2023-05-10T02:28:08.617Z,9.73
2023-05-10T02:30:36.602Z,9.30
2023-05-10T02:33:05.939Z,7.97
2023-05-10T02:35:34.841Z,8.85
2023-05-10T02:38:02.720Z,7.97
2023-05-10T02:40:31.108Z,7.53
2023-05-10T02:43:00.571Z,9.10
2023-05-10T02:45:30.723Z,8.63
2023-05-10T02:47:58.605Z,8.80
2023-05-10T02:50:29.285Z,8.30
2023-05-10T02:53:04.934Z,8.82
2023-05-10T02:55:39.321Z,8.63
2023-05-10T02:58:06.768Z,8.88
2023-05-10T03:00:34.035Z,8.23
2023-05-10T03:03:01.720Z,10.00
2023-05-10T03:05:28.832Z,8.63
2023-05-10T03:07:57.272Z,7.75
2023-05-10T03:10:30.792Z,7.60
2023-05-10T03:13:09.117Z,5.95
2023-05-10T03:15:47.065Z,6.18
2023-05-10T03:18:28.905Z,6.25
2023-05-10T03:21:08.040Z,7.15
2023-05-10T03:23:44.547Z,6.72
2023-05-10T03:26:17.644Z,6.30
2023-05-10T03:28:45.260Z,5.63
2023-05-10T03:31:13.789Z,6.72
2023-05-10T03:33:51.348Z,6.25
2023-05-10T03:36:19.077Z,5.55
2023-05-10T03:38:47.067Z,5.63
2023-05-10T03:41:14.185Z,5.97
2023-05-10T03:43:42.421Z,5.93
2023-05-10T03:46:09.639Z,6.78
2023-05-10T03:48:36.704Z,6.47
2023-05-10T03:51:03.843Z,6.45
2023-05-10T03:53:30.906Z,6.93
2023-05-10T03:55:57.934Z,7.03
2023-05-10T03:58:24.991Z,6.47
2023-05-10T04:00:52.964Z,7.88
2023-05-10T04:03:20.187Z,8.50
2023-05-10T04:05:47.295Z,6.38
2023-05-10T04:08:14.473Z,6.93
2023-05-10T04:10:41.640Z,6.72
2023-05-10T04:13:08.717Z,6.22
2023-05-10T04:15:36.890Z,6.18
2023-05-10T04:18:04.752Z,6.28
2023-05-10T04:20:34.514Z,5.40
2023-05-10T04:23:01.571Z,5.28
2023-05-10T04:25:28.686Z,5.53
2023-05-10T04:27:55.749Z,6.32
2023-05-10T04:30:23.002Z,6.75
2023-05-10T04:32:50.761Z,4.95
2023-05-10T04:35:17.895Z,5.75
2023-05-10T04:37:45.010Z,5.93
2023-05-10T04:40:12.601Z,5.40
2023-05-10T04:42:42.511Z,5.93
2023-05-10T04:45:10.947Z,5.30
2023-05-10T04:47:38.376Z,5.47
2023-05-10T04:50:06.597Z,5.93
2023-05-10T04:52:33.687Z,5.50
2023-05-10T04:55:00.799Z,6.15
2023-05-10T04:57:27.944Z,5.38
2023-05-10T04:59:55.100Z,5.50
2023-05-10T05:02:22.225Z,5.45
2023-05-10T05:04:49.297Z,5.32
2023-05-10T05:07:16.367Z,6.00
2023-05-10T05:09:43.526Z,6.10
2023-05-10T05:12:15.369Z,5.30
2023-05-10T05:14:42.724Z,5.38
2023-05-10T05:17:09.865Z,6.10
2023-05-10T05:19:37.077Z,4.70
2023-05-10T05:22:04.231Z,5.20
2023-05-10T05:24:37.095Z,5.20
2023-05-10T05:27:04.235Z,6.33
2023-05-10T05:29:31.469Z,6.15
2023-05-10T05:31:58.846Z,5.82
2023-05-10T05:34:26.453Z,6.30
2023-05-10T05:36:53.538Z,5.93
2023-05-10T05:39:20.630Z,5.30
2023-05-10T05:41:47.855Z,5.75
2023-05-10T05:44:15.005Z,5.65
2023-05-10T05:46:42.071Z,5.32
2023-05-10T05:49:09.103Z,6.30
2023-05-10T05:51:37.076Z,6.03
2023-05-10T05:54:05.600Z,5.82
2023-05-10T05:56:32.745Z,5.05
2023-05-10T05:59:01.709Z,5.50
2023-05-10T06:01:28.785Z,5.88
2023-05-10T06:03:55.935Z,5.82
2023-05-10T06:06:23.189Z,5.88
2023-05-10T06:08:50.236Z,5.63
2023-05-10T06:11:17.301Z,6.03
2023-05-10T06:13:44.418Z,5.95
2023-05-10T06:16:11.833Z,5.90
2023-05-10T06:18:38.969Z,6.05
2023-05-10T06:21:06.181Z,5.55
2023-05-10T06:23:33.410Z,5.15
2023-05-10T06:26:00.408Z,5.85
2023-05-10T06:28:27.439Z,5.63
2023-05-10T06:30:54.568Z,5.95
2023-05-10T06:33:21.580Z,6.63
2023-05-10T06:35:48.633Z,6.18
2023-05-10T06:38:16.484Z,6.57
2023-05-10T06:40:44.063Z,6.80
2023-05-10T06:43:11.309Z,6.15
2023-05-10T06:45:38.546Z,6.07
2023-05-10T06:48:05.952Z,6.28
2023-05-10T06:50:33.502Z,6.57
2023-05-10T06:53:01.247Z,6.18
2023-05-10T06:55:28.388Z,6.63
2023-05-10T06:57:58.501Z,7.13
2023-05-10T07:00:25.908Z,6.00
2023-05-10T07:02:53.353Z,8.13
2023-05-10T07:05:21.508Z,18.35
2023-05-10T07:07:48.778Z,14.48
2023-05-10T07:10:15.971Z,11.15
2023-05-10T07:12:43.787Z,9.55
2023-05-10T07:15:11.053Z,9.85
2023-05-10T07:17:38.163Z,10.32
2023-05-10T07:20:06.506Z,13.18
2023-05-10T07:22:33.678Z,11.85
2023-05-10T07:25:00.678Z,8.90
2023-05-10T07:27:27.836Z,6.97
2023-05-10T07:29:55.865Z,9.48
2023-05-10T07:32:23.111Z,11.75
2023-05-10T07:34:50.322Z,11.27
2023-05-10T07:37:17.445Z,7.55
2023-05-10T07:39:44.533Z,10.05
2023-05-10T07:42:11.616Z,9.23
2023-05-10T07:44:38.660Z,12.75
2023-05-10T07:47:05.938Z,12.40
2023-05-10T07:49:32.983Z,11.23
2023-05-10T07:52:00.175Z,12.20
2023-05-10T07:54:27.334Z,12.85
2023-05-10T07:56:54.379Z,12.18
2023-05-10T07:59:21.445Z,11.95
2023-05-10T08:01:48.833Z,11.82
2023-05-10T08:04:15.957Z,11.95
2023-05-10T08:06:43.143Z,9.20
2023-05-10T08:09:10.697Z,7.38
2023-05-10T08:11:37.908Z,7.47
2023-05-10T08:14:05.081Z,9.02
2023-05-10T08:16:33.848Z,8.85
2023-05-10T08:19:01.121Z,7.53
2023-05-10T08:21:28.298Z,7.32
2023-05-10T08:23:55.531Z,7.07
2023-05-10T08:26:22.901Z,7.30
2023-05-10T08:28:50.085Z,6.65
2023-05-10T08:31:17.779Z,7.00
2023-05-10T08:33:44.964Z,7.18
2023-05-10T08:36:12.465Z,6.18
2023-05-10T08:38:39.735Z,7.35
2023-05-10T08:41:07.338Z,7.40
2023-05-10T08:43:37.232Z,7.55
2023-05-10T08:46:07.108Z,7.53
2023-05-10T08:48:36.815Z,7.75
2023-05-10T08:51:05.153Z,6.60
2023-05-10T08:53:36.733Z,6.93
2023-05-10T08:56:04.899Z,7.28
2023-05-10T08:58:32.424Z,6.40
2023-05-10T09:01:00.772Z,8.02
2023-05-10T09:03:28.006Z,6.60
2023-05-10T09:05:57.080Z,6.68
2023-05-10T09:08:27.984Z,7.25
2023-05-10T09:10:58.642Z,6.80
2023-05-10T09:13:27.282Z,7.07
2023-05-10T09:15:55.205Z,6.78
2023-05-10T09:18:22.260Z,6.82
2023-05-10T09:20:50.350Z,6.95
2023-05-10T09:23:17.388Z,6.78
2023-05-10T09:25:44.482Z,6.82
2023-05-10T09:28:12.509Z,6.80
2023-05-10T09:30:40.533Z,6.43
2023-05-10T09:33:07.751Z,6.63
2023-05-10T09:35:35.344Z,6.13
2023-05-10T09:38:04.744Z,6.20
2023-05-10T09:40:32.453Z,6.85
2023-05-10T09:43:04.573Z,5.93
2023-05-10T09:45:35.068Z,5.80
2023-05-10T09:48:05.200Z,6.65
2023-05-10T09:50:32.279Z,5.88
2023-05-10T09:53:04.947Z,6.22
2023-05-10T09:55:41.446Z,6.27
2023-05-10T09:58:12.112Z,6.32
2023-05-10T10:00:41.574Z,6.60
2023-05-10T10:03:18.214Z,5.30
2023-05-10T10:05:46.333Z,6.38
2023-05-10T10:08:14.296Z,6.15
2023-05-10T10:10:41.837Z,6.80
2023-05-10T10:13:09.679Z,5.80
2023-05-10T10:15:37.001Z,6.82
2023-05-10T10:18:06.484Z,6.03
2023-05-10T10:20:33.731Z,7.10
2023-05-10T10:23:00.831Z,6.10
2023-05-10T10:25:28.070Z,5.95
2023-05-10T10:27:55.319Z,6.88
2023-05-10T10:30:31.226Z,6.40
2023-05-10T10:33:31.876Z,6.82
2023-05-10T10:36:04.494Z,6.00
2023-05-10T10:38:49.926Z,5.57
2023-05-10T10:41:30.389Z,6.90
2023-05-10T10:44:38.119Z,6.80
2023-05-10T10:47:07.149Z,6.68
2023-05-10T10:49:39.651Z,6.72
2023-05-10T10:52:22.195Z,6.93
2023-05-10T10:55:12.357Z,6.05
2023-05-10T10:57:45.374Z,5.38
2023-05-10T11:00:39.115Z,6.38
2023-05-10T11:03:20.141Z,6.70
2023-05-10T11:05:48.056Z,6.38
2023-05-10T11:08:18.158Z,6.72
2023-05-10T11:10:53.396Z,6.85
2023-05-10T11:13:51.538Z,6.25
2023-05-10T11:16:19.282Z,6.50
2023-05-10T11:19:24.232Z,6.47
2023-05-10T11:21:55.384Z,5.40
2023-05-10T11:24:24.464Z,6.43
2023-05-10T11:26:55.060Z,5.88
2023-05-10T11:29:22.298Z,6.60
2023-05-10T11:31:51.221Z,7.03
2023-05-10T11:34:34.870Z,5.72
2023-05-10T11:37:02.542Z,7.43
2023-05-10T11:39:31.553Z,5.65
2023-05-10T11:41:59.742Z,6.00
2023-05-10T11:44:35.709Z,5.82
2023-05-10T11:47:03.477Z,6.53
2023-05-10T11:49:30.732Z,5.82
2023-05-10T11:52:08.644Z,6.03
2023-05-10T11:54:38.677Z,5.85
2023-05-10T11:57:06.151Z,6.80
2023-05-10T11:59:33.215Z,6.63
2023-05-10T12:02:00.700Z,6.15
2023-05-10T12:04:30.802Z,6.78
2023-05-10T12:06:58.090Z,7.30
2023-05-10T12:09:39.416Z,6.68
2023-05-10T12:12:10.188Z,5.70
2023-05-10T12:14:37.258Z,6.13
2023-05-10T12:17:04.255Z,5.55
2023-05-10T12:19:39.862Z,6.60
2023-05-10T12:22:07.512Z,7.10
2023-05-10T12:24:39.467Z,6.95
2023-05-10T12:29:53.745Z,6.32
2023-05-10T12:32:20.992Z,6.35
2023-05-10T12:34:48.835Z,6.53
2023-05-10T12:37:15.860Z,6.75
2023-05-10T12:39:45.080Z,6.43
2023-05-10T12:42:12.430Z,6.30
2023-05-10T12:44:40.132Z,6.78
2023-05-10T12:47:07.581Z,7.22
2023-05-10T12:49:35.262Z,5.82
2023-05-10T12:52:02.483Z,6.70
2023-05-10T12:54:29.558Z,6.65
2023-05-10T12:56:56.627Z,6.93
2023-05-10T12:59:24.035Z,6.90
2023-05-10T13:01:51.216Z,6.60
2023-05-10T13:04:18.248Z,6.90
2023-05-10T13:06:45.417Z,6.82
2023-05-10T13:09:12.499Z,6.90
2023-05-10T13:11:39.625Z,6.65
2023-05-10T13:14:06.781Z,6.25
2023-05-10T13:16:34.069Z,6.60
2023-05-10T13:19:01.243Z,7.15
2023-05-10T13:21:28.525Z,6.63
2023-05-10T13:23:55.671Z,7.18
2023-05-10T13:26:22.695Z,6.90
2023-05-10T13:28:50.807Z,6.20
2023-05-10T13:31:18.167Z,6.72
2023-05-10T13:33:45.142Z,7.50
2023-05-10T13:36:12.133Z,6.50
2023-05-10T13:38:39.164Z,6.63
2023-05-10T13:41:06.202Z,6.60
2023-05-10T13:43:33.275Z,6.47
2023-05-10T13:46:00.382Z,7.43
2023-05-10T13:48:28.145Z,6.65
2023-05-10T13:50:55.184Z,6.50
2023-05-10T13:53:22.366Z,6.57
2023-05-10T13:55:49.430Z,7.55
2023-05-10T13:58:16.511Z,6.35
2023-05-10T14:00:43.637Z,7.45
2023-05-10T14:03:12.659Z,7.93
2023-05-10T14:05:39.809Z,6.60
2023-05-10T14:08:06.996Z,6.57
2023-05-10T14:10:33.910Z,6.32
2023-05-10T14:13:00.923Z,7.30
2023-05-10T14:15:28.072Z,7.38
2023-05-10T14:17:56.646Z,6.93
2023-05-10T14:20:23.689Z,6.70
2023-05-10T14:22:50.836Z,7.15
2023-05-10T14:25:18.057Z,7.55
2023-05-10T14:27:45.306Z,6.65
2023-05-10T14:30:12.848Z,7.13
2023-05-10T14:32:39.851Z,6.60
2023-05-10T14:35:07.588Z,7.88
2023-05-10T14:37:34.996Z,6.78
2023-05-10T14:40:02.052Z,6.53
2023-05-10T14:42:29.636Z,6.22
2023-05-10T14:44:56.873Z,7.28
2023-05-10T14:47:23.880Z,6.90
2023-05-10T14:49:50.821Z,7.57
2023-05-10T14:52:18.520Z,7.85
2023-05-10T14:54:45.573Z,7.40
2023-05-10T14:57:12.505Z,6.63
2023-05-10T14:59:39.715Z,7.78
2023-05-10T15:02:09.405Z,7.70
2023-05-10T15:04:36.763Z,6.70
2023-05-10T15:07:04.495Z,7.60
2023-05-10T15:09:31.632Z,7.15
2023-05-10T15:11:58.578Z,7.03
2023-05-10T15:14:26.123Z,7.15
2023-05-10T15:16:53.158Z,7.03
2023-05-10T15:19:21.602Z,7.40
2023-05-10T15:21:48.699Z,7.30
2023-05-10T15:24:15.743Z,7.22
2023-05-10T15:26:42.776Z,8.10
2023-05-10T15:29:10.062Z,7.65
2023-05-10T15:31:37.400Z,8.10
2023-05-10T15:34:04.487Z,6.90
2023-05-10T15:36:33.676Z,9.13
2023-05-10T15:39:00.682Z,8.10
2023-05-10T15:41:27.983Z,8.18
2023-05-10T15:43:55.913Z,8.75
2023-05-10T15:46:23.041Z,7.05
2023-05-10T15:48:50.087Z,8.05
2023-05-10T15:51:17.395Z,7.07
2023-05-10T15:53:56.438Z,7.43
2023-05-10T15:56:23.935Z,7.15
2023-05-10T15:58:51.254Z,7.20
2023-05-10T16:01:18.489Z,8.07
2023-05-10T16:03:45.568Z,7.18
2023-05-10T16:06:12.833Z,7.72
2023-05-10T16:08:39.924Z,8.20
2023-05-10T16:11:08.361Z,6.82
2023-05-10T16:13:35.742Z,7.28
2023-05-10T16:16:03.023Z,7.82
2023-05-10T16:18:30.469Z,8.02
2023-05-10T16:20:59.973Z,7.68
2023-05-10T16:23:28.302Z,7.72
2023-05-10T16:25:55.848Z,7.63
2023-05-10T16:28:23.238Z,6.93
2023-05-10T16:30:50.357Z,7.43
2023-05-10T16:33:17.499Z,7.57
2023-05-10T16:35:44.746Z,8.18
2023-05-10T16:38:11.824Z,7.78
2023-05-10T16:40:39.027Z,7.82
2023-05-10T16:43:06.128Z,7.25
2023-05-10T16:45:33.286Z,7.40
2023-05-10T16:48:00.527Z,7.80
2023-05-10T16:50:27.894Z,7.70
2023-05-10T16:52:55.088Z,7.50
2023-05-10T16:55:24.744Z,7.88
2023-05-10T16:57:53.276Z,8.13
2023-05-10T17:00:21.135Z,7.03
2023-05-10T17:02:48.919Z,7.32
2023-05-10T17:05:16.469Z,7.10
2023-05-10T17:07:43.620Z,7.35
2023-05-10T17:10:11.168Z,7.90
2023-05-10T17:12:38.330Z,6.93
2023-05-10T17:15:06.565Z,6.93
2023-05-10T17:17:33.649Z,7.50
2023-05-10T17:20:01.019Z,7.50
2023-05-10T17:22:28.421Z,7.20
2023-05-10T17:24:55.518Z,7.40
2023-05-10T17:27:22.836Z,7.75
2023-05-10T17:29:49.932Z,8.63
2023-05-10T17:32:17.005Z,7.35
2023-05-10T17:34:44.982Z,7.93
2023-05-10T17:37:12.372Z,7.32
2023-05-10T17:39:40.107Z,8.07
2023-05-10T17:42:07.625Z,7.35
2023-05-10T17:44:34.759Z,7.82
2023-05-10T17:47:02.233Z,7.32
2023-05-10T17:49:29.352Z,8.25
2023-05-10T17:51:56.359Z,7.57
2023-05-10T17:54:23.585Z,8.48
2023-05-10T17:56:50.677Z,7.95
2023-05-10T17:59:17.715Z,8.07
2023-05-10T18:01:44.929Z,7.85
2023-05-10T18:04:11.995Z,8.25
2023-05-10T18:06:39.431Z,8.25
2023-05-10T18:09:07.699Z,7.72
2023-05-10T18:11:38.859Z,7.57
2023-05-10T18:14:05.902Z,6.93
2023-05-10T18:16:33.279Z,8.13
2023-05-10T18:19:00.442Z,8.40
2023-05-10T18:21:28.022Z,8.52
2023-05-10T18:23:55.482Z,8.10
2023-05-10T18:26:22.646Z,7.90
2023-05-10T18:28:49.786Z,7.88
2023-05-10T18:31:17.127Z,7.70
2023-05-10T18:33:45.292Z,6.82
2023-05-10T18:36:12.421Z,8.43
2023-05-10T18:38:40.470Z,8.23
2023-05-10T18:41:07.780Z,8.70
2023-05-10T18:43:34.854Z,8.23
2023-05-10T18:46:02.605Z,8.30
2023-05-10T18:48:29.678Z,7.88
2023-05-10T18:50:56.688Z,8.35
2023-05-10T18:53:23.883Z,8.43
2023-05-10T18:55:58.893Z,8.30
2023-05-10T18:58:28.584Z,8.15
2023-05-10T19:00:56.200Z,7.78
2023-05-10T19:03:23.329Z,8.00
2023-05-10T19:05:50.542Z,8.57
2023-05-10T19:08:17.984Z,8.52
2023-05-10T19:10:46.207Z,8.68
2023-05-10T19:13:15.191Z,8.40
2023-05-10T19:15:42.364Z,8.82
2023-05-10T19:18:09.777Z,9.00
2023-05-10T19:20:36.982Z,8.48
2023-05-10T19:23:10.079Z,8.32
2023-05-10T19:25:37.681Z,8.65
2023-05-10T19:28:04.916Z,8.27
2023-05-10T19:30:32.325Z,8.48
2023-05-10T19:32:59.737Z,7.78
2023-05-10T19:35:26.970Z,9.27
2023-05-10T19:37:54.385Z,8.65
2023-05-10T19:40:21.713Z,7.88
2023-05-10T19:42:48.952Z,8.43
2023-05-10T19:45:16.588Z,8.82
2023-05-10T19:47:44.802Z,8.75
2023-05-10T19:50:12.994Z,8.57
2023-05-10T19:52:40.322Z,9.38
2023-05-10T19:55:09.292Z,8.68
2023-05-10T19:57:36.842Z,9.13
2023-05-10T20:00:05.447Z,8.38
2023-05-10T20:02:32.689Z,8.68
2023-05-10T20:04:59.797Z,8.35
2023-05-10T20:07:26.937Z,10.40
2023-05-10T20:09:53.979Z,9.18
2023-05-10T20:12:21.664Z,9.35
2023-05-10T20:14:48.758Z,8.05
2023-05-10T20:17:15.850Z,8.85
2023-05-10T20:19:43.123Z,8.75
2023-05-10T20:22:10.754Z,7.53
2023-05-10T20:24:37.885Z,8.98
2023-05-10T20:27:05.013Z,8.48
2023-05-10T20:29:32.863Z,8.73
2023-05-10T20:32:00.009Z,8.27
2023-05-10T20:34:27.134Z,8.82
2023-05-10T20:36:54.274Z,8.63
2023-05-10T20:39:21.679Z,9.32
2023-05-10T20:41:49.759Z,8.95
2023-05-10T20:44:16.785Z,9.07
2023-05-10T20:46:43.925Z,9.65
2023-05-10T20:49:11.097Z,10.60
2023-05-10T20:51:38.159Z,9.82
2023-05-10T20:54:05.294Z,10.25
2023-05-10T20:56:32.504Z,9.65
2023-05-10T20:58:59.597Z,8.77
2023-05-10T21:01:26.801Z,9.82
2023-05-10T21:03:53.930Z,8.90
2023-05-10T21:06:21.005Z,9.07
2023-05-10T21:08:48.124Z,10.43
2023-05-10T21:11:15.233Z,9.75
2023-05-10T21:13:42.383Z,11.25
2023-05-10T21:16:09.514Z,9.32
2023-05-10T21:18:36.710Z,8.55
2023-05-10T21:21:04.068Z,8.27
2023-05-10T21:23:32.474Z,8.88
2023-05-10T21:26:03.455Z,9.35
2023-05-10T21:28:30.505Z,9.63
2023-05-10T21:30:57.756Z,8.82
2023-05-10T21:33:24.809Z,7.00
2023-05-10T21:35:52.739Z,7.90
2023-05-10T21:38:19.827Z,7.43
2023-05-10T21:40:47.065Z,6.90
2023-05-10T21:43:14.153Z,6.40
2023-05-10T21:45:41.437Z,5.65
2023-05-10T21:48:08.645Z,5.90
2023-05-10T21:50:35.745Z,6.78
2023-05-10T21:53:03.159Z,6.30
2023-05-10T21:55:30.315Z,6.30
2023-05-10T21:57:58.232Z,6.03
2023-05-10T22:00:25.268Z,6.20
2023-05-10T22:02:52.573Z,6.28
2023-05-10T22:05:21.416Z,6.15
2023-05-10T22:07:48.661Z,6.05
2023-05-10T22:10:16.335Z,5.70
2023-05-10T22:12:43.588Z,4.95
2023-05-10T22:15:11.307Z,6.65
2023-05-10T22:17:40.304Z,5.78
2023-05-10T22:20:09.070Z,5.93
2023-05-10T22:22:36.990Z,5.70
2023-05-10T22:25:06.379Z,4.88
2023-05-10T22:27:33.773Z,5.93
2023-05-10T22:30:00.964Z,5.70
2023-05-10T22:32:28.333Z,6.57
2023-05-10T22:34:55.578Z,6.18
2023-05-10T22:37:22.705Z,6.50
2023-05-10T22:39:55.152Z,7.28
2023-05-10T22:42:24.664Z,6.72
2023-05-10T22:44:51.853Z,6.40
2023-05-10T22:47:18.873Z,6.72
2023-05-10T22:49:45.931Z,6.60
2023-05-10T22:52:13.425Z,7.30
2023-05-10T22:54:41.351Z,6.63
2023-05-10T22:57:09.091Z,6.68
2023-05-10T22:59:36.170Z,6.32
2023-05-10T23:02:04.144Z,6.97
2023-05-10T23:04:31.235Z,6.95
2023-05-10T23:06:58.316Z,6.80
2023-05-10T23:09:25.416Z,6.97
2023-05-10T23:11:52.429Z,6.20
2023-05-10T23:14:19.622Z,6.20
2023-05-10T23:16:46.986Z,6.72
2023-05-10T23:19:14.140Z,6.03
2023-05-10T23:21:41.233Z,6.78
2023-05-10T23:24:08.839Z,6.07
2023-05-10T23:26:35.947Z,5.53
2023-05-10T23:29:03.012Z,5.88
2023-05-10T23:31:30.614Z,6.65
2023-05-10T23:33:57.685Z,5.70
2023-05-10T23:36:24.776Z,6.30
2023-05-10T23:38:51.890Z,6.50
2023-05-10T23:41:19.139Z,6.00
2023-05-10T23:43:46.110Z,6.35
2023-05-10T23:46:13.286Z,5.63
2023-05-10T23:48:40.470Z,5.85
2023-05-10T23:51:07.660Z,5.90
2023-05-10T23:53:34.681Z,6.20
2023-05-10T23:56:02.254Z,5.68
2023-05-10T23:58:29.782Z,6.00
